createdAt,value
2019-06-27T00:01:34.766Z,64.67
2019-06-27T00:04:01.511Z,64.53
2019-06-27T00:06:28.374Z,64.68
2019-06-27T00:08:55.142Z,64.25
2019-06-27T00:11:21.920Z,63.84
2019-06-27T00:13:48.705Z,65.26
2019-06-27T00:16:15.470Z,64.87
2019-06-27T00:18:42.224Z,64.15
2019-06-27T00:21:08.991Z,64.11
2019-06-27T00:23:35.730Z,65.16
2019-06-27T00:26:02.526Z,65.44
2019-06-27T00:28:29.286Z,65.64
2019-06-27T00:30:56.059Z,64.79
2019-06-27T00:33:22.807Z,65.35
2019-06-27T00:35:49.572Z,66.03
2019-06-27T00:38:16.354Z,65.30
2019-06-27T00:40:43.175Z,64.97
2019-06-27T00:43:09.870Z,65.27
2019-06-27T00:45:36.718Z,65.16
2019-06-27T00:48:03.519Z,65.06
2019-06-27T00:50:30.263Z,65.15
2019-06-27T00:52:57.042Z,64.38
2019-06-27T00:55:23.781Z,65.30
2019-06-27T00:57:51.561Z,64.84
2019-06-27T01:00:18.335Z,65.49
2019-06-27T01:02:45.082Z,64.70
2019-06-27T01:05:11.826Z,64.86
2019-06-27T01:07:38.589Z,65.77
2019-06-27T01:10:05.352Z,66.01
2019-06-27T01:12:32.110Z,66.27
2019-06-27T01:14:58.904Z,66.44
2019-06-27T01:17:25.689Z,66.17
2019-06-27T01:19:52.424Z,66.84
2019-06-27T01:22:19.194Z,67.01
2019-06-27T01:24:45.938Z,67.40
2019-06-27T01:27:25.996Z,68.55
2019-06-27T01:29:39.455Z,67.46
2019-06-27T01:32:06.220Z,67.78
2019-06-27T01:34:32.962Z,69.10
2019-06-27T01:36:59.743Z,68.85
2019-06-27T01:39:26.511Z,68.51
2019-06-27T01:41:53.288Z,69.68
2019-06-27T01:44:25.854Z,69.18
2019-06-27T01:46:52.622Z,69.59
2019-06-27T01:49:19.392Z,70.27
2019-06-27T01:51:46.155Z,70.42
2019-06-27T01:54:12.898Z,70.78
2019-06-27T01:56:39.682Z,70.07
2019-06-27T01:59:06.433Z,71.30
2019-06-27T02:01:33.189Z,71.53
2019-06-27T02:03:59.939Z,71.65
2019-06-27T02:06:26.694Z,71.96
2019-06-27T02:08:53.438Z,72.15
2019-06-27T02:11:20.199Z,72.05
2019-06-27T02:13:46.968Z,72.46
2019-06-27T02:16:13.712Z,72.17
2019-06-27T02:18:40.485Z,72.30
2019-06-27T02:21:07.242Z,72.92
2019-06-27T02:23:33.999Z,73.37
2019-06-27T02:26:00.766Z,74.01
2019-06-27T02:28:27.520Z,73.87
2019-06-27T02:30:54.270Z,73.87
2019-06-27T02:33:21.044Z,74.10
2019-06-27T02:35:47.779Z,73.86
2019-06-27T02:38:14.536Z,73.20
2019-06-27T02:40:41.280Z,74.39
2019-06-27T02:43:08.084Z,73.57
2019-06-27T02:45:34.896Z,74.35
2019-06-27T02:48:01.672Z,74.54
2019-06-27T02:50:28.423Z,73.07
2019-06-27T02:52:55.195Z,74.37
2019-06-27T02:55:21.946Z,74.32
2019-06-27T02:57:48.807Z,74.67
2019-06-27T03:00:15.566Z,74.76
2019-06-27T03:02:42.347Z,75.32
2019-06-27T03:05:09.087Z,74.79
2019-06-27T03:07:35.871Z,74.88
2019-06-27T03:10:03.020Z,75.27
2019-06-27T03:12:29.782Z,74.45
2019-06-27T03:14:56.546Z,74.11
2019-06-27T03:17:23.290Z,75.39
2019-06-27T03:19:50.079Z,75.92
2019-06-27T03:22:18.396Z,76.43
2019-06-27T03:24:45.151Z,76.04
2019-06-27T03:27:11.900Z,76.30
2019-06-27T03:29:38.673Z,76.36
2019-06-27T03:32:05.416Z,77.20
2019-06-27T03:34:32.201Z,76.44
2019-06-27T03:36:58.991Z,76.99
2019-06-27T03:39:25.791Z,76.38
2019-06-27T03:41:52.540Z,76.68
2019-06-27T03:44:19.299Z,76.52
2019-06-27T03:46:46.076Z,76.41
2019-06-27T03:49:12.899Z,76.18
2019-06-27T03:51:39.665Z,75.94
2019-06-27T03:54:06.461Z,75.42
2019-06-27T03:56:33.237Z,75.87
2019-06-27T03:59:12.050Z,76.33
2019-06-27T04:01:26.749Z,76.06
2019-06-27T04:03:53.551Z,75.50
2019-06-27T04:06:20.267Z,75.02
2019-06-27T04:08:47.042Z,74.63
2019-06-27T04:11:13.848Z,75.71
2019-06-27T04:13:40.632Z,75.52
2019-06-27T04:16:07.465Z,75.56
2019-06-27T04:18:34.218Z,75.70
2019-06-27T04:21:01.024Z,74.60
2019-06-27T04:23:27.799Z,75.49
2019-06-27T04:25:54.572Z,75.09
2019-06-27T04:28:21.340Z,74.08
2019-06-27T04:30:48.123Z,74.95
2019-06-27T04:33:14.854Z,74.57
2019-06-27T04:35:41.642Z,74.21
2019-06-27T04:38:08.393Z,74.39
2019-06-27T04:40:35.147Z,74.73
2019-06-27T04:43:05.411Z,74.47
2019-06-27T04:45:28.645Z,73.35
2019-06-27T04:47:55.400Z,73.42
2019-06-27T04:50:22.266Z,73.05
2019-06-27T04:52:49.009Z,72.16
2019-06-27T04:55:16.811Z,72.89
2019-06-27T04:57:43.003Z,73.92
2019-06-27T05:00:12.457Z,73.59
2019-06-27T05:02:39.295Z,73.35
2019-06-27T05:05:06.067Z,74.37
2019-06-27T05:07:32.831Z,72.44
2019-06-27T05:09:59.598Z,73.61
2019-06-27T05:12:26.403Z,72.45
2019-06-27T05:14:53.206Z,72.35
2019-06-27T05:17:19.955Z,72.91
2019-06-27T05:19:46.700Z,73.78
2019-06-27T05:22:13.532Z,72.40
2019-06-27T05:24:40.326Z,72.04
2019-06-27T05:27:07.137Z,72.80
2019-06-27T05:29:33.933Z,72.66
2019-06-27T05:32:00.732Z,72.12
2019-06-27T05:34:27.514Z,72.61
2019-06-27T05:36:54.310Z,72.86
2019-06-27T05:39:21.055Z,71.54
2019-06-27T05:41:50.504Z,72.19
2019-06-27T05:44:14.618Z,71.84
2019-06-27T05:46:41.419Z,72.38
2019-06-27T05:49:08.224Z,71.66
2019-06-27T05:51:35.040Z,70.91
2019-06-27T05:54:01.817Z,71.45
2019-06-27T05:56:28.639Z,71.32
2019-06-27T05:58:55.390Z,71.21
2019-06-27T06:01:22.208Z,71.26
2019-06-27T06:03:49.002Z,71.60
2019-06-27T06:06:15.702Z,70.22
2019-06-27T06:08:42.504Z,70.52
2019-06-27T06:11:10.199Z,69.71
2019-06-27T06:13:37.047Z,69.10
2019-06-27T06:16:03.800Z,70.43
2019-06-27T06:18:30.539Z,68.36
2019-06-27T06:20:57.307Z,68.90
2019-06-27T06:23:24.186Z,69.20
2019-06-27T06:25:50.982Z,69.24
2019-06-27T06:28:17.718Z,68.29
2019-06-27T06:30:45.325Z,69.03
2019-06-27T06:33:11.207Z,68.36
2019-06-27T06:35:37.990Z,68.72
2019-06-27T06:38:04.755Z,68.79
2019-06-27T06:40:31.512Z,68.58
2019-06-27T06:43:00.587Z,67.44
2019-06-27T06:45:25.033Z,67.42
2019-06-27T06:47:51.807Z,67.01
2019-06-27T06:50:18.554Z,67.79
2019-06-27T06:52:45.347Z,65.22
2019-06-27T06:55:12.138Z,66.40
2019-06-27T06:57:38.912Z,67.33
2019-06-27T07:00:05.677Z,65.66
2019-06-27T07:02:32.456Z,65.64
2019-06-27T07:04:59.244Z,64.85
2019-06-27T07:07:26.021Z,65.13
2019-06-27T07:09:52.870Z,66.25
2019-06-27T07:12:19.745Z,65.08
2019-06-27T07:14:46.458Z,66.30
2019-06-27T07:17:13.232Z,64.68
2019-06-27T07:19:40.002Z,64.69
2019-06-27T07:22:06.763Z,64.62
2019-06-27T07:24:33.502Z,62.62
2019-06-27T07:27:00.371Z,63.80
2019-06-27T07:29:27.061Z,64.23
2019-06-27T07:31:53.833Z,64.27
2019-06-27T07:34:20.587Z,62.78
2019-06-27T07:36:47.366Z,63.25
2019-06-27T07:39:14.133Z,61.99
2019-06-27T07:41:40.886Z,63.54
2019-06-27T07:44:07.678Z,62.25
2019-06-27T07:46:34.434Z,64.47
2019-06-27T07:49:01.205Z,63.45
2019-06-27T07:51:27.959Z,64.88
2019-06-27T07:53:54.819Z,61.90
2019-06-27T07:56:21.576Z,62.27
2019-06-27T07:58:48.331Z,63.23
2019-06-27T08:01:15.079Z,61.49
2019-06-27T08:03:41.892Z,61.96
2019-06-27T08:06:08.635Z,62.66
2019-06-27T08:08:35.407Z,60.90
2019-06-27T08:11:02.179Z,61.10
2019-06-27T08:13:29.007Z,60.74
2019-06-27T08:15:55.730Z,60.49
2019-06-27T08:18:22.498Z,59.27
2019-06-27T08:20:49.250Z,58.69
2019-06-27T08:23:16.014Z,58.24
2019-06-27T08:25:42.769Z,58.39
2019-06-27T08:28:09.546Z,57.81
2019-06-27T08:30:36.302Z,57.07
2019-06-27T08:33:03.070Z,58.94
2019-06-27T08:35:33.414Z,56.98
2019-06-27T08:37:56.582Z,57.70
2019-06-27T08:40:23.357Z,57.45
2019-06-27T08:42:50.103Z,57.69
2019-06-27T08:45:16.890Z,57.57
2019-06-27T08:47:43.686Z,57.06
2019-06-27T08:50:10.496Z,58.75
2019-06-27T08:52:37.263Z,57.18
2019-06-27T08:55:04.019Z,55.86
2019-06-27T08:57:30.875Z,57.31
2019-06-27T08:59:57.648Z,59.21
2019-06-27T09:02:24.426Z,54.93
2019-06-27T09:04:51.191Z,55.37
2019-06-27T09:07:17.954Z,56.18
2019-06-27T09:09:44.703Z,55.28
2019-06-27T09:12:11.467Z,57.20
2019-06-27T09:14:38.260Z,54.09
2019-06-27T09:17:05.007Z,54.36
2019-06-27T09:19:31.788Z,52.52
2019-06-27T09:21:58.558Z,53.41
2019-06-27T09:24:25.307Z,53.92
2019-06-27T09:26:52.076Z,53.94
2019-06-27T09:29:18.862Z,54.23
2019-06-27T09:31:45.852Z,53.89
2019-06-27T09:34:12.602Z,54.05
2019-06-27T09:36:39.371Z,53.71
2019-06-27T09:39:06.103Z,51.56
2019-06-27T09:41:32.839Z,53.21
2019-06-27T09:43:59.612Z,53.45
2019-06-27T09:46:26.335Z,51.58
2019-06-27T09:48:53.086Z,51.77
2019-06-27T09:51:19.841Z,50.89
2019-06-27T09:53:46.607Z,50.17
2019-06-27T09:56:13.338Z,49.97
2019-06-27T09:58:40.095Z,49.45
2019-06-27T10:01:06.843Z,49.99
2019-06-27T10:03:33.615Z,50.17
2019-06-27T10:06:00.351Z,47.29
2019-06-27T10:08:27.124Z,46.17
2019-06-27T10:10:53.878Z,47.69
2019-06-27T10:13:20.691Z,46.12
2019-06-27T10:15:47.451Z,46.92
2019-06-27T10:18:14.216Z,46.46
2019-06-27T10:20:41.059Z,46.60
2019-06-27T10:23:07.848Z,46.25
2019-06-27T10:25:38.064Z,44.75
2019-06-27T10:28:01.362Z,47.61
2019-06-27T10:30:28.110Z,47.72
2019-06-27T10:32:59.810Z,45.82
2019-06-27T10:35:21.697Z,45.51
2019-06-27T10:37:48.475Z,45.08
2019-06-27T10:40:15.301Z,44.77
2019-06-27T10:42:42.067Z,45.35
2019-06-27T10:45:08.838Z,46.13
2019-06-27T10:47:35.671Z,44.48
2019-06-27T10:50:03.693Z,44.55
2019-06-27T10:52:30.450Z,44.37
2019-06-27T10:54:57.233Z,44.43
2019-06-27T10:57:24.051Z,43.89
2019-06-27T10:59:50.852Z,43.04
2019-06-27T11:02:17.639Z,43.65
2019-06-27T11:04:44.511Z,43.34
2019-06-27T11:07:11.237Z,42.68
2019-06-27T11:09:38.099Z,42.42
2019-06-27T11:12:04.869Z,42.93
2019-06-27T11:14:31.658Z,41.63
2019-06-27T11:16:58.403Z,42.22
2019-06-27T11:19:25.200Z,41.28
2019-06-27T11:21:52.185Z,40.65
2019-06-27T11:24:20.557Z,42.71
2019-06-27T11:26:47.542Z,42.12
2019-06-27T11:29:14.451Z,41.71
2019-06-27T11:31:41.202Z,41.44
2019-06-27T11:34:08.014Z,41.45
2019-06-27T11:36:34.835Z,41.55
2019-06-27T11:39:01.665Z,39.61
2019-06-27T11:41:28.490Z,41.76
2019-06-27T11:43:55.260Z,39.46
2019-06-27T11:46:22.081Z,40.88
2019-06-27T11:48:48.842Z,42.68
2019-06-27T11:51:15.603Z,42.42
2019-06-27T11:53:42.362Z,42.08
2019-06-27T11:56:09.221Z,40.61
2019-06-27T11:58:35.918Z,41.59
2019-06-27T12:01:05.461Z,41.34
2019-06-27T12:03:47.871Z,41.90
2019-06-27T12:05:58.999Z,42.98
2019-06-27T12:08:25.847Z,41.11
2019-06-27T12:10:52.655Z,37.64
2019-06-27T12:13:19.454Z,37.87
2019-06-27T12:15:46.262Z,38.67
2019-06-27T12:18:13.014Z,38.04
2019-06-27T12:20:39.791Z,37.65
2019-06-27T12:23:06.540Z,36.26
2019-06-27T12:25:33.340Z,39.59
2019-06-27T12:28:00.090Z,37.89
2019-06-27T12:30:27.032Z,36.88
2019-06-27T12:32:53.970Z,36.88
2019-06-27T12:35:20.956Z,34.99
2019-06-27T12:37:47.903Z,35.95
2019-06-27T12:40:14.631Z,35.06
2019-06-27T12:42:42.030Z,34.54
2019-06-27T12:45:08.929Z,35.07
2019-06-27T12:47:35.803Z,35.70
2019-06-27T12:50:03.324Z,37.64
2019-06-27T12:52:29.668Z,35.46
2019-06-27T12:54:57.093Z,35.75
2019-06-27T12:57:24.191Z,35.03
2019-06-27T12:59:51.259Z,37.08
2019-06-27T13:02:18.725Z,36.33
2019-06-27T13:04:45.882Z,36.56
2019-06-27T13:07:12.639Z,35.78
2019-06-27T13:09:39.459Z,35.07
2019-06-27T13:12:06.227Z,35.90
2019-06-27T13:14:33.003Z,35.16
2019-06-27T13:16:59.758Z,34.94
2019-06-27T13:19:26.650Z,35.71
2019-06-27T13:21:54.888Z,35.63
2019-06-27T13:24:21.650Z,34.72
2019-06-27T13:26:49.509Z,34.51
2019-06-27T13:29:16.284Z,35.27
2019-06-27T13:31:43.092Z,33.14
2019-06-27T13:34:09.855Z,33.65
2019-06-27T13:36:36.615Z,33.49
2019-06-27T13:39:06.411Z,33.54
2019-06-27T13:41:30.879Z,33.22
2019-06-27T13:43:57.627Z,34.50
2019-06-27T13:46:24.503Z,32.20
2019-06-27T13:48:51.200Z,32.07
2019-06-27T13:51:18.042Z,33.33
2019-06-27T13:53:44.786Z,33.43
2019-06-27T13:56:11.566Z,31.34
2019-06-27T13:58:38.329Z,34.82
2019-06-27T14:01:05.106Z,31.18
2019-06-27T14:03:47.829Z,32.19
2019-06-27T14:05:58.668Z,30.65
2019-06-27T14:08:26.377Z,31.62
2019-06-27T14:10:52.198Z,31.60
2019-06-27T14:13:18.946Z,31.25
2019-06-27T14:15:46.845Z,31.49
2019-06-27T14:18:13.579Z,31.30
2019-06-27T14:20:40.534Z,31.31
2019-06-27T14:23:07.271Z,32.42
2019-06-27T14:25:34.156Z,32.37
2019-06-27T14:28:01.988Z,32.24
2019-06-27T14:30:28.739Z,32.51
2019-06-27T14:32:55.524Z,31.31
2019-06-27T14:35:22.362Z,31.54
2019-06-27T14:37:49.122Z,30.92
2019-06-27T14:40:15.924Z,30.54
2019-06-27T14:42:42.690Z,30.68
2019-06-27T14:45:09.457Z,29.89
2019-06-27T14:47:36.350Z,30.90
2019-06-27T14:50:03.166Z,32.12
2019-06-27T14:52:29.907Z,30.58
2019-06-27T14:54:56.682Z,31.24
2019-06-27T14:57:23.438Z,29.89
2019-06-27T14:59:50.199Z,33.21
2019-06-27T15:02:16.958Z,31.13
2019-06-27T15:04:43.713Z,30.15
2019-06-27T15:07:10.483Z,28.59
2019-06-27T15:09:37.244Z,30.31
2019-06-27T15:12:04.012Z,30.65
2019-06-27T15:14:30.833Z,30.14
2019-06-27T15:16:57.621Z,30.64
2019-06-27T15:19:24.378Z,30.16
2019-06-27T15:21:51.170Z,28.62
2019-06-27T15:24:17.946Z,29.14
2019-06-27T15:26:44.732Z,29.47
2019-06-27T15:29:11.515Z,30.34
2019-06-27T15:31:38.303Z,29.74
2019-06-27T15:34:05.050Z,31.20
2019-06-27T15:36:31.830Z,29.85
2019-06-27T15:38:58.622Z,31.04
2019-06-27T15:41:25.431Z,29.16
2019-06-27T15:43:52.227Z,29.44
2019-06-27T15:46:18.979Z,30.07
2019-06-27T15:48:46.777Z,28.80
2019-06-27T15:51:13.542Z,30.58
2019-06-27T15:53:40.367Z,32.46
2019-06-27T15:56:07.249Z,31.47
2019-06-27T15:58:33.906Z,30.88
2019-06-27T16:01:00.745Z,31.19
2019-06-27T16:03:27.531Z,31.74
2019-06-27T16:06:08.222Z,31.03
2019-06-27T16:08:21.086Z,32.51
2019-06-27T16:10:47.859Z,32.18
2019-06-27T16:13:14.618Z,33.58
2019-06-27T16:15:41.440Z,32.00
2019-06-27T16:18:08.495Z,31.00
2019-06-27T16:20:35.371Z,31.76
2019-06-27T16:23:02.135Z,29.97
2019-06-27T16:25:28.914Z,31.14
2019-06-27T16:27:55.770Z,31.24
2019-06-27T16:30:22.603Z,31.17
2019-06-27T16:32:49.459Z,31.27
2019-06-27T16:35:16.228Z,30.92
2019-06-27T16:37:42.978Z,31.38
2019-06-27T16:40:09.707Z,32.05
2019-06-27T16:42:36.502Z,31.97
2019-06-27T16:45:03.727Z,31.50
2019-06-27T16:47:30.515Z,31.40
2019-06-27T16:49:57.279Z,33.25
2019-06-27T16:52:24.051Z,31.17
2019-06-27T16:54:50.819Z,29.43
2019-06-27T16:57:17.603Z,29.72
2019-06-27T16:59:44.366Z,29.63
2019-06-27T17:02:11.143Z,29.58
2019-06-27T17:04:37.911Z,31.07
2019-06-27T17:07:04.673Z,29.52
2019-06-27T17:09:31.427Z,30.76
2019-06-27T17:11:58.207Z,31.67
2019-06-27T17:14:24.953Z,30.52
2019-06-27T17:16:51.797Z,29.69
2019-06-27T17:19:18.506Z,30.07
2019-06-27T17:21:45.294Z,30.48
2019-06-27T17:24:12.047Z,30.02
2019-06-27T17:26:38.815Z,30.55
2019-06-27T17:29:05.558Z,28.09
2019-06-27T17:31:32.336Z,27.53
2019-06-27T17:33:59.100Z,27.87
2019-06-27T17:36:25.919Z,26.75
2019-06-27T17:38:52.690Z,27.91
2019-06-27T17:41:19.470Z,27.06
2019-06-27T17:43:46.227Z,27.75
2019-06-27T17:46:13.086Z,27.15
2019-06-27T17:48:39.842Z,26.82
2019-06-27T17:51:07.963Z,27.52
2019-06-27T17:53:33.365Z,26.54
2019-06-27T17:56:00.151Z,26.31
2019-06-27T17:58:26.931Z,25.93
2019-06-27T18:00:53.818Z,25.84
2019-06-27T18:03:20.679Z,25.06
2019-06-27T18:05:47.259Z,25.42
2019-06-27T18:08:14.050Z,24.84
2019-06-27T18:10:40.799Z,25.11
2019-06-27T18:13:07.662Z,25.89
2019-06-27T18:15:34.488Z,25.19
2019-06-27T18:18:01.242Z,27.20
2019-06-27T18:20:28.106Z,26.92
2019-06-27T18:22:54.927Z,26.41
2019-06-27T18:25:21.875Z,26.57
2019-06-27T18:27:48.624Z,25.78
2019-06-27T18:30:15.384Z,26.54
2019-06-27T18:32:42.123Z,27.18
2019-06-27T18:35:08.889Z,27.10
2019-06-27T18:37:35.653Z,27.99
2019-06-27T18:40:02.438Z,29.11
2019-06-27T18:42:29.193Z,31.00
2019-06-27T18:44:55.991Z,33.77
2019-06-27T18:47:22.758Z,35.50
2019-06-27T18:49:49.478Z,34.83
2019-06-27T18:52:16.822Z,34.37
2019-06-27T18:54:47.602Z,34.25
2019-06-27T18:57:14.354Z,36.63
2019-06-27T18:59:41.092Z,37.93
2019-06-27T19:04:45.702Z,37.49
2019-06-27T19:07:12.454Z,38.97
2019-06-27T19:09:39.182Z,37.91
2019-06-27T19:12:05.934Z,38.37
2019-06-27T19:14:32.728Z,36.70
2019-06-27T19:16:59.510Z,37.82
2019-06-27T19:19:26.950Z,37.76
2019-06-27T19:22:14.300Z,38.43
2019-06-27T19:24:47.666Z,38.63
2019-06-27T19:27:14.497Z,38.69
2019-06-27T19:29:41.309Z,38.28
2019-06-27T19:32:08.352Z,38.74
2019-06-27T19:34:35.099Z,38.90
2019-06-27T19:37:01.934Z,38.45
2019-06-27T19:39:28.673Z,38.79
2019-06-27T19:41:57.166Z,39.90
2019-06-27T19:44:22.145Z,39.31
2019-06-27T19:46:48.886Z,39.70
2019-06-27T19:49:15.723Z,40.81
2019-06-27T19:51:42.479Z,41.55
2019-06-27T19:54:09.237Z,42.14
2019-06-27T19:56:35.967Z,42.84
2019-06-27T19:59:02.754Z,42.01
2019-06-27T20:01:29.482Z,42.64
2019-06-27T20:03:56.283Z,44.02
2019-06-27T20:06:23.018Z,44.04
2019-06-27T20:08:49.783Z,46.54
2019-06-27T20:11:16.514Z,46.10
2019-06-27T20:13:43.300Z,45.32
2019-06-27T20:16:10.019Z,45.84
2019-06-27T20:18:36.834Z,43.21
2019-06-27T20:21:03.587Z,45.06
2019-06-27T20:23:30.338Z,44.25
2019-06-27T20:25:57.057Z,44.53
2019-06-27T20:28:23.810Z,46.25
2019-06-27T20:30:50.803Z,47.82
2019-06-27T20:33:17.583Z,48.45
2019-06-27T20:35:44.321Z,49.69
2019-06-27T20:38:11.091Z,49.39
2019-06-27T20:40:37.943Z,50.79
2019-06-27T20:43:04.687Z,49.26
2019-06-27T20:45:31.535Z,48.30
2019-06-27T20:47:58.266Z,49.10
2019-06-27T20:50:24.999Z,49.05
2019-06-27T20:52:51.805Z,49.74
2019-06-27T20:55:18.465Z,50.09
2019-06-27T20:57:45.208Z,50.89
2019-06-27T21:00:11.938Z,51.42
2019-06-27T21:02:38.814Z,51.93
2019-06-27T21:05:05.733Z,52.18
2019-06-27T21:07:32.498Z,52.98
2019-06-27T21:09:59.250Z,53.91
2019-06-27T21:12:26.052Z,53.34
2019-06-27T21:14:52.851Z,54.47
2019-06-27T21:17:19.620Z,53.36
2019-06-27T21:19:46.386Z,53.78
2019-06-27T21:22:13.156Z,55.82
2019-06-27T21:24:39.957Z,54.83
2019-06-27T21:27:06.704Z,55.30
2019-06-27T21:29:33.520Z,53.82
2019-06-27T21:32:00.305Z,54.41
2019-06-27T21:34:27.083Z,55.35
2019-06-27T21:36:53.940Z,55.05
2019-06-27T21:39:20.712Z,55.58
2019-06-27T21:41:47.511Z,55.64
2019-06-27T21:44:14.318Z,56.79
2019-06-27T21:46:41.082Z,57.55
2019-06-27T21:49:11.231Z,57.08
2019-06-27T21:51:34.638Z,58.42
2019-06-27T21:54:01.486Z,58.21
2019-06-27T21:56:28.230Z,57.47
2019-06-27T21:58:56.070Z,57.33
2019-06-27T22:01:22.831Z,58.22
2019-06-27T22:03:49.613Z,58.97
2019-06-27T22:06:16.396Z,59.35
2019-06-27T22:08:43.192Z,59.29
2019-06-27T22:11:09.972Z,59.36
2019-06-27T22:13:36.742Z,60.40
2019-06-27T22:16:03.490Z,60.66
2019-06-27T22:18:30.259Z,60.24
2019-06-27T22:20:57.022Z,61.15
2019-06-27T22:23:23.782Z,61.22
2019-06-27T22:25:50.526Z,62.49
2019-06-27T22:28:17.326Z,61.63
2019-06-27T22:30:44.074Z,61.90
2019-06-27T22:33:10.887Z,62.02
2019-06-27T22:35:37.696Z,62.73
2019-06-27T22:38:10.258Z,62.15
2019-06-27T22:40:42.886Z,62.77
2019-06-27T22:43:15.539Z,61.96
2019-06-27T22:45:48.110Z,60.43
2019-06-27T22:48:14.488Z,61.95
2019-06-27T22:50:47.390Z,61.92
2019-06-27T22:53:15.834Z,61.59
2019-06-27T22:55:42.602Z,62.11
2019-06-27T22:58:09.359Z,61.21
2019-06-27T23:00:36.171Z,61.14
2019-06-27T23:03:02.930Z,61.33
2019-06-27T23:05:31.563Z,61.38
2019-06-27T23:07:58.292Z,60.94
2019-06-27T23:10:25.061Z,61.30
2019-06-27T23:12:51.819Z,62.10
2019-06-27T23:15:18.550Z,62.78
2019-06-27T23:17:45.362Z,63.16
2019-06-27T23:20:12.121Z,61.86
2019-06-27T23:22:38.894Z,62.62
2019-06-27T23:25:05.726Z,62.63
2019-06-27T23:27:32.499Z,62.14
2019-06-27T23:29:59.230Z,62.50
2019-06-27T23:32:25.987Z,63.09
2019-06-27T23:34:52.731Z,62.60
2019-06-27T23:37:19.514Z,62.83
2019-06-27T23:39:46.251Z,63.15
2019-06-27T23:42:13.009Z,63.61
2019-06-27T23:44:39.742Z,64.39
2019-06-27T23:48:26.175Z,63.87
2019-06-27T23:50:53.007Z,64.50
2019-06-27T23:53:19.687Z,63.96
2019-06-27T23:55:46.450Z,64.41
2019-06-27T23:58:13.173Z,64.36
